Time;durP1;ratioP1;P1;durP2;ratioP2;P2;SDS_P1;SDS_P2;PMS_P1;PMS_P2;Temp;Humidity;BMP_temperature;BMP_pressure;BME280_temperature;BME280_humidity;BME280_pressure;Samples;Min_cycle;Max_cycle;Signal;HPM_P1;HPM_P2
2022/04/13 00:00:39;;;;;;;3.90;1.87;;;17.10;59.70;;;;;;4992137;28;20222;-76
2022/04/13 00:03:05;;;;;;;2.80;1.87;;;17.10;59.80;;;;;;4992199;28;20198;-76
2022/04/13 00:05:30;;;;;;;4.90;2.10;;;17.20;60.30;;;;;;4974953;28;20632;-75
2022/04/13 00:07:56;;;;;;;4.53;1.63;;;17.10;60.10;;;;;;4974580;28;20167;-75
2022/04/13 00:10:22;;;;;;;3.40;2.10;;;17.20;60.30;;;;;;4990768;28;21050;-75
2022/04/13 00:12:48;;;;;;;5.57;1.97;;;17.20;60.30;;;;;;4992181;28;20175;-76
2022/04/13 00:15:13;;;;;;;2.87;1.70;;;17.20;60.30;;;;;;4990945;28;20221;-75
2022/04/13 00:17:39;;;;;;;2.80;1.60;;;17.20;60.40;;;;;;4991905;28;20170;-75
2022/04/13 00:20:06;;;;;;;3.53;1.83;;;17.20;60.80;;;;;;4991878;28;20186;-75
2022/04/13 00:22:32;;;;;;;3.03;1.77;;;17.20;60.70;;;;;;4991805;28;20199;-75
2022/04/13 00:24:57;;;;;;;4.47;2.13;;;17.20;60.80;;;;;;4991934;28;20666;-75
2022/04/13 00:27:23;;;;;;;3.00;2.10;;;17.20;61.00;;;;;;4991585;28;20597;-75
2022/04/13 00:29:49;;;;;;;4.83;2.00;;;17.10;61.00;;;;;;4992731;28;20634;-75
2022/04/13 00:32:15;;;;;;;3.80;2.30;;;17.10;61.40;;;;;;4995879;28;20210;-75
2022/04/13 00:34:41;;;;;;;2.73;1.50;;;17.10;62.00;;;;;;4995798;28;20571;-75
2022/04/13 00:37:07;;;;;;;3.00;2.37;;;17.10;61.90;;;;;;4995569;28;20635;-75
2022/04/13 00:39:33;;;;;;;2.50;1.83;;;17.00;61.90;;;;;;4995530;28;20738;-75
2022/04/13 00:42:01;;;;;;;4.00;1.90;;;17.00;62.10;;;;;;4995644;28;21244;-75
2022/04/13 00:44:28;;;;;;;4.00;1.90;;;17.00;62.40;;;;;;4994115;28;20167;-75
2022/04/13 00:46:54;;;;;;;3.60;1.83;;;17.00;62.40;;;;;;4978076;28;20581;-75
2022/04/13 00:49:20;;;;;;;2.93;2.03;;;17.00;62.50;;;;;;4995128;28;20598;-76
2022/04/13 00:51:46;;;;;;;3.10;1.80;;;17.00;62.80;;;;;;4995571;28;20562;-75
2022/04/13 00:54:16;;;;;;;3.13;2.07;;;16.90;62.90;;;;;;4993419;28;20266;-76
2022/04/13 00:56:44;;;;;;;8.43;1.77;;;16.90;63.30;;;;;;4995423;28;20569;-75
2022/04/13 00:59:13;;;;;;;3.17;1.73;;;16.90;63.50;;;;;;4994949;28;20689;-76
2022/04/13 01:01:41;;;;;;;2.67;2.17;;;16.90;63.70;;;;;;4993748;28;20725;-75
2022/04/13 01:16:26;;;;;;;5.80;1.90;;;16.90;64.40;;;;;;4995058;28;20542;-76
2022/04/13 01:18:53;;;;;;;3.97;1.50;;;17.00;63.90;;;;;;4993444;28;20602;-76
2022/04/13 01:21:35;;;;;;;2.43;1.73;;;17.00;64.50;;;;;;4994784;28;20606;-76
2022/04/13 01:24:02;;;;;;;3.30;2.40;;;17.00;64.90;;;;;;4994892;28;20570;-75
2022/04/13 01:26:28;;;;;;;2.63;1.80;;;17.00;65.00;;;;;;4994741;28;20562;-75
2022/04/13 01:28:54;;;;;;;3.07;1.90;;;16.90;65.10;;;;;;4994420;28;20613;-75
2022/04/13 01:31:20;;;;;;;2.23;1.70;;;16.90;65.30;;;;;;4994599;28;20517;-75
2022/04/13 01:33:46;;;;;;;4.70;2.00;;;16.90;65.40;;;;;;4994818;28;20175;-75
2022/04/13 01:36:11;;;;;;;4.90;2.20;;;16.90;65.80;;;;;;4994454;28;20572;-75
2022/04/13 01:38:37;;;;;;;5.00;2.20;;;16.90;65.90;;;;;;4994279;28;20187;-76
2022/04/13 01:41:03;;;;;;;3.47;2.07;;;16.90;66.10;;;;;;4994001;28;20635;-76
2022/04/13 01:43:28;;;;;;;2.77;1.57;;;16.80;66.10;;;;;;4994500;28;20167;-76
2022/04/13 01:45:55;;;;;;;2.40;1.87;;;16.80;66.20;;;;;;4993432;28;20567;-75
2022/04/13 01:48:21;;;;;;;2.20;1.80;;;16.80;66.50;;;;;;4993048;28;20565;-75
2022/04/13 01:50:46;;;;;;;3.00;1.47;;;16.80;66.70;;;;;;4993282;28;20566;-75
2022/04/13 01:53:12;;;;;;;4.60;2.23;;;16.80;66.90;;;;;;4994465;28;20178;-75
2022/04/13 01:55:38;;;;;;;6.50;1.80;;;16.70;67.60;;;;;;4977034;28;20582;-75
2022/04/13 01:58:04;;;;;;;4.30;2.07;;;16.70;67.60;;;;;;4994059;28;20570;-76
2022/04/13 02:00:30;;;;;;;2.20;1.60;;;16.70;67.80;;;;;;4993963;28;20195;-75
2022/04/13 02:02:55;;;;;;;4.40;2.20;;;16.60;67.90;;;;;;4976710;28;20209;-75
2022/04/13 02:05:21;;;;;;;4.33;2.30;;;16.60;68.20;;;;;;4992849;28;20179;-75
2022/04/13 02:07:47;;;;;;;3.87;1.50;;;16.60;68.60;;;;;;4993951;28;20175;-76
2022/04/13 02:10:13;;;;;;;2.90;1.57;;;16.60;68.80;;;;;;4992508;28;20249;-75
2022/04/13 02:12:38;;;;;;;7.27;2.47;;;16.50;68.90;;;;;;4994062;28;20205;-75
2022/04/13 02:15:07;;;;;;;4.10;2.17;;;16.60;69.20;;;;;;4993872;28;21098;-75
2022/04/13 02:17:33;;;;;;;2.97;1.90;;;16.50;69.40;;;;;;4976247;28;20258;-75
2022/04/13 02:19:58;;;;;;;2.53;1.30;;;16.50;69.30;;;;;;4976098;28;21284;-75
2022/04/13 02:22:24;;;;;;;2.70;1.93;;;16.50;69.90;;;;;;4993691;28;20195;-75
2022/04/13 02:24:50;;;;;;;2.55;1.67;;;16.50;69.80;;;;;;4993892;28;20525;-75
2022/04/13 02:27:16;;;;;;;3.10;2.23;;;16.50;70.00;;;;;;4992148;28;20171;-75
2022/04/13 02:29:46;;;;;;;3.70;1.63;;;16.40;70.10;;;;;;4992171;28;20338;-75
2022/04/13 02:32:12;;;;;;;3.03;2.07;;;16.40;70.40;;;;;;4992849;28;20171;-75
2022/04/13 02:34:37;;;;;;;3.27;1.90;;;16.30;70.50;;;;;;4992491;28;20881;-75
2022/04/13 02:37:03;;;;;;;3.90;1.60;;;16.30;70.80;;;;;;4993722;28;20583;-74
2022/04/13 02:39:29;;;;;;;5.40;2.50;;;16.20;70.80;;;;;;4993036;28;20199;-74
2022/04/13 02:41:55;;;;;;;2.57;1.97;;;16.20;71.30;;;;;;4993229;28;20285;-75
2022/04/13 02:44:20;;;;;;;5.53;2.10;;;16.20;71.50;;;;;;4991822;28;20169;-74
2022/04/13 02:46:46;;;;;;;4.43;2.03;;;16.20;71.70;;;;;;4983206;28;20179;-75
2022/04/13 02:49:12;;;;;;;5.40;2.67;;;16.10;72.10;;;;;;4980785;28;20205;-74
2022/04/13 02:51:38;;;;;;;3.23;2.00;;;16.10;72.50;;;;;;4984742;28;20218;-74
2022/04/13 02:54:04;;;;;;;3.83;2.10;;;16.00;72.60;;;;;;4992927;28;20552;-75
2022/04/13 02:56:30;;;;;;;4.23;1.90;;;16.00;73.10;;;;;;4975921;28;20589;-74
2022/04/13 02:58:55;;;;;;;5.47;2.30;;;16.00;73.20;;;;;;4991602;28;20653;-74
2022/04/13 03:01:21;;;;;;;2.90;1.90;;;15.90;73.50;;;;;;4975280;28;20293;-74
2022/04/13 03:03:47;;;;;;;4.37;1.93;;;15.90;73.80;;;;;;4992873;28;20212;-74
2022/04/13 03:06:13;;;;;;;4.63;2.53;;;15.80;74.10;;;;;;4970085;28;20590;-74
2022/04/13 03:08:38;;;;;;;3.77;1.80;;;15.80;74.50;;;;;;4983022;28;20273;-74
2022/04/13 03:11:04;;;;;;;2.93;1.80;;;15.80;74.90;;;;;;4992936;28;20538;-74
2022/04/13 03:13:30;;;;;;;3.00;2.10;;;15.70;75.10;;;;;;4982061;28;20191;-74
2022/04/13 03:15:56;;;;;;;4.17;2.70;;;15.70;75.60;;;;;;4992760;28;20174;-74
2022/04/13 03:18:22;;;;;;;4.00;2.10;;;15.60;75.90;;;;;;4992436;28;20972;-74
2022/04/13 03:20:47;;;;;;;4.10;1.83;;;15.60;76.20;;;;;;4992961;28;20574;-74
2022/04/13 03:23:13;;;;;;;5.73;2.30;;;15.60;76.50;;;;;;4991350;28;20203;-74
2022/04/13 03:25:39;;;;;;;5.73;2.13;;;15.60;76.90;;;;;;4992626;28;20171;-73
2022/04/13 03:28:04;;;;;;;4.70;2.23;;;15.50;77.30;;;;;;4992383;28;20222;-74
2022/04/13 03:30:30;;;;;;;2.70;2.00;;;15.50;77.60;;;;;;4987788;28;20298;-74
2022/04/13 03:32:56;;;;;;;7.80;2.03;;;15.50;78.00;;;;;;4984390;28;20693;-74
2022/04/13 03:35:24;;;;;;;4.17;2.03;;;15.50;78.30;;;;;;4992537;28;20190;-74
2022/04/13 03:37:50;;;;;;;2.88;1.73;;;15.50;78.60;;;;;;4985166;28;20167;-75
2022/04/13 03:40:16;;;;;;;3.37;1.90;;;15.40;78.90;;;;;;4982714;28;20203;-75
2022/04/13 03:42:42;;;;;;;3.60;1.60;;;15.40;79.30;;;;;;4978978;28;20211;-75
2022/04/13 03:45:11;;;;;;;8.67;2.30;;;15.40;79.70;;;;;;4984562;28;20169;-75
2022/04/13 03:47:39;;;;;;;2.90;1.80;;;15.40;80.20;;;;;;4975454;28;20591;-74
2022/04/13 03:50:06;;;;;;;3.63;1.90;;;15.30;80.50;;;;;;4972274;28;20191;-74
2022/04/13 03:52:35;;;;;;;3.08;1.55;;;15.30;80.90;;;;;;4972259;28;20278;-75
2022/04/13 03:55:06;;;;;;;2.92;1.85;;;15.30;81.50;;;;;;4977278;28;20554;-74
2022/04/13 03:57:32;;;;;;;5.28;1.80;;;15.30;82.10;;;;;;4982556;28;20225;-75
2022/04/13 03:59:58;;;;;;;4.97;1.83;;;15.30;82.00;;;;;;4971284;28;20615;-75
2022/04/13 04:02:24;;;;;;;3.87;2.20;;;15.30;82.50;;;;;;4972431;28;20739;-75
2022/04/13 04:04:49;;;;;;;2.90;2.17;;;15.30;82.80;;;;;;4977811;28;20175;-74
2022/04/13 04:07:16;;;;;;;3.30;2.13;;;15.30;83.30;;;;;;4994296;28;20167;-74
2022/04/13 04:09:43;;;;;;;5.32;1.80;;;15.30;83.60;;;;;;4999573;28;20252;-74
2022/04/13 04:12:09;;;;;;;2.25;1.67;;;15.20;83.80;;;;;;4990659;28;20171;-74
2022/04/13 04:14:35;;;;;;;4.03;1.85;;;15.20;84.20;;;;;;4996190;28;20178;-74
2022/04/13 04:17:01;;;;;;;4.00;2.13;;;15.20;84.60;;;;;;5004573;28;20179;-75
2022/04/13 04:19:27;;;;;;;4.37;2.10;;;15.20;85.00;;;;;;5007808;28;20193;-75
2022/04/13 04:21:54;;;;;;;4.30;1.73;;;15.20;85.50;;;;;;4999193;28;20237;-75
2022/04/13 04:24:20;;;;;;;3.92;1.67;;;15.10;85.80;;;;;;4998677;28;20253;-74
2022/04/13 04:26:46;;;;;;;2.90;1.70;;;15.10;86.20;;;;;;4998497;28;20250;-74
2022/04/13 04:29:12;;;;;;;2.63;1.60;;;15.10;86.70;;;;;;4980795;28;20674;-74
2022/04/13 04:31:49;;;;;;;3.83;1.93;;;15.10;86.90;;;;;;4997108;28;20574;-75
2022/04/13 04:34:16;;;;;;;4.35;2.35;;;15.10;87.30;;;;;;4998389;28;20175;-75
2022/04/13 04:36:42;;;;;;;3.50;2.13;;;15.00;87.90;;;;;;4997152;28;20544;-75
2022/04/13 04:39:08;;;;;;;2.53;1.87;;;15.00;88.40;;;;;;4998158;28;20190;-75
2022/04/13 04:41:34;;;;;;;4.10;2.53;;;15.00;88.70;;;;;;4998014;28;20206;-75
2022/04/13 04:44:00;;;;;;;2.77;1.83;;;15.00;89.10;;;;;;4998526;28;20578;-75
2022/04/13 04:46:27;;;;;;;4.25;1.92;;;15.00;89.50;;;;;;4998343;28;20574;-75
2022/04/13 04:48:53;;;;;;;4.10;2.20;;;15.00;90.00;;;;;;4998081;28;20191;-75
2022/04/13 04:51:19;;;;;;;4.18;1.98;;;15.00;90.20;;;;;;4998128;28;20592;-74
2022/04/13 04:53:47;;;;;;;5.07;1.80;;;15.00;90.40;;;;;;4980754;28;20647;-75
2022/04/13 04:56:14;;;;;;;4.15;2.20;;;15.00;90.50;;;;;;4996872;28;20558;-75
2022/04/13 04:58:40;;;;;;;3.13;2.28;;;15.00;90.70;;;;;;4996709;28;20187;-75
2022/04/13 05:01:05;;;;;;;4.80;2.33;;;15.00;90.90;;;;;;4998048;28;20163;-74
2022/04/13 05:03:32;;;;;;;4.23;2.27;;;15.10;91.20;;;;;;4997014;28;20169;-74
2022/04/13 05:05:57;;;;;;;4.32;1.92;;;15.10;91.40;;;;;;4998076;28;20562;-75
2022/04/13 05:08:23;;;;;;;4.60;2.07;;;15.10;91.60;;;;;;4997915;28;20709;-74
2022/04/13 05:10:51;;;;;;;6.70;2.23;;;15.20;91.80;;;;;;4996737;28;20554;-74
2022/04/13 05:13:20;;;;;;;3.38;1.90;;;15.30;92.00;;;;;;4998335;28;20621;-75
2022/04/13 05:15:46;;;;;;;7.32;2.30;;;15.30;92.30;;;;;;4978308;28;20174;-75
2022/04/13 05:18:12;;;;;;;3.83;2.27;;;15.40;92.30;;;;;;4993621;28;20705;-75
2022/04/13 05:20:39;;;;;;;2.87;2.67;;;15.50;92.50;;;;;;4994946;28;20574;-75
2022/04/13 05:23:05;;;;;;;2.45;1.80;;;15.60;93.00;;;;;;4994823;28;20676;-75
2022/04/13 05:25:30;;;;;;;3.10;2.33;;;15.70;92.80;;;;;;4994894;28;20167;-75
2022/04/13 05:27:56;;;;;;;2.50;1.67;;;15.80;92.90;;;;;;4993444;28;20573;-76
2022/04/13 05:30:22;;;;;;;3.40;1.97;;;15.90;93.00;;;;;;4994570;28;20217;-76
2022/04/13 05:32:57;;;;;;;2.97;2.27;;;16.00;93.00;;;;;;4993406;28;20238;-76
2022/04/13 05:35:24;;;;;;;2.63;2.10;;;16.10;93.20;;;;;;4993702;28;20619;-76
2022/04/13 05:37:50;;;;;;;4.50;2.43;;;16.30;93.30;;;;;;4991442;28;20578;-75
2022/04/13 05:40:16;;;;;;;3.60;1.70;;;16.40;93.30;;;;;;4972597;28;20646;-74
2022/04/13 05:42:42;;;;;;;4.97;2.13;;;16.60;93.40;;;;;;4973131;28;20203;-74
2022/04/13 05:45:08;;;;;;;2.83;2.00;;;16.70;93.40;;;;;;4974703;28;20170;-74
2022/04/13 05:47:35;;;;;;;3.87;2.27;;;16.80;93.50;;;;;;4974525;28;20192;-74
2022/04/13 05:50:02;;;;;;;3.07;2.10;;;16.90;93.50;;;;;;4973421;28;20583;-74
2022/04/13 05:52:27;;;;;;;5.03;2.70;;;17.10;93.60;;;;;;4974194;28;20578;-74
2022/04/13 05:54:53;;;;;;;3.07;2.20;;;17.20;93.60;;;;;;4974455;28;20567;-75
2022/04/13 05:57:19;;;;;;;4.03;2.40;;;17.30;93.50;;;;;;4968359;28;20266;-74
2022/04/13 05:59:44;;;;;;;4.70;1.80;;;17.40;93.50;;;;;;4973498;28;20218;-73
2022/04/13 06:02:10;;;;;;;3.90;2.83;;;17.50;93.40;;;;;;4971846;28;20210;-73
2022/04/13 06:04:36;;;;;;;4.43;2.37;;;17.60;93.50;;;;;;4974182;28;20171;-74
2022/04/13 06:07:05;;;;;;;4.50;2.77;;;17.70;93.40;;;;;;4952300;28;20250;-73
2022/04/13 06:09:31;;;;;;;4.83;2.90;;;17.90;93.40;;;;;;4955836;28;20203;-75
2022/04/13 06:11:57;;;;;;;5.13;3.00;;;18.00;93.80;;;;;;4968340;28;20610;-74
2022/04/13 06:14:23;;;;;;;4.50;3.73;;;18.10;93.40;;;;;;4959206;28;20659;-74
2022/04/13 06:16:49;;;;;;;2.83;1.97;;;18.10;93.40;;;;;;4972690;28;20563;-74
2022/04/13 06:19:15;;;;;;;6.00;2.47;;;18.30;93.40;;;;;;4974099;28;20606;-74
2022/04/13 06:21:41;;;;;;;5.97;3.23;;;18.30;93.30;;;;;;4973481;28;20208;-74
2022/04/13 06:24:07;;;;;;;5.53;3.60;;;18.40;93.20;;;;;;4972575;28;20176;-74
2022/04/13 06:26:33;;;;;;;7.33;3.70;;;18.50;93.10;;;;;;4973620;28;20507;-74
2022/04/13 06:28:58;;;;;;;5.10;2.90;;;18.60;92.90;;;;;;4972377;28;20621;-74
2022/04/13 06:31:24;;;;;;;5.00;2.90;;;18.70;92.90;;;;;;4981537;28;20262;-74
2022/04/13 06:33:52;;;;;;;7.43;3.27;;;18.80;92.80;;;;;;4987197;28;20269;-74
2022/04/13 06:39:34;;;;;;;7.27;3.80;;;19.10;92.60;;;;;;4969190;28;20630;-75
2022/04/13 06:41:59;;;;;;;6.50;3.90;;;19.50;92.70;;;;;;4974054;28;20614;-75
2022/04/13 06:44:25;;;;;;;5.90;3.47;;;19.80;92.80;;;;;;4957517;28;20178;-75
2022/04/13 06:46:52;;;;;;;5.30;3.70;;;20.30;92.90;;;;;;4974029;28;20172;-75
2022/04/13 06:49:17;;;;;;;7.50;3.57;;;20.70;92.90;;;;;;4972016;28;20291;-75
2022/04/13 06:51:52;;;;;;;6.93;3.17;;;21.20;92.80;;;;;;4973634;28;20662;-76
2022/04/13 06:54:18;;;;;;;5.07;2.80;;;21.70;92.50;;;;;;4971981;28;20175;-75
2022/04/13 06:56:44;;;;;;;8.83;3.50;;;22.20;92.10;;;;;;4973580;28;20578;-75
2022/04/13 06:59:09;;;;;;;8.83;3.10;;;22.60;91.80;;;;;;4973308;28;20551;-75
2022/04/13 07:01:35;;;;;;;7.03;2.90;;;23.20;91.60;;;;;;4971964;28;20200;-76
2022/04/13 07:04:05;;;;;;;6.73;3.13;;;23.70;91.20;;;;;;4973252;28;20595;-76
2022/04/13 07:06:31;;;;;;;7.23;3.00;;;24.30;90.40;;;;;;4973243;28;20632;-76
2022/04/13 07:08:57;;;;;;;6.43;3.27;;;24.70;89.40;;;;;;4972665;28;20972;-75
2022/04/13 07:11:23;;;;;;;7.07;3.00;;;25.20;88.60;;;;;;4971980;28;20567;-76
2022/04/13 07:13:48;;;;;;;5.80;2.73;;;25.70;87.80;;;;;;4973463;28;20306;-76
2022/04/13 07:16:14;;;;;;;6.00;2.70;;;26.30;87.00;;;;;;4973294;28;20163;-76
2022/04/13 07:18:40;;;;;;;6.13;2.80;;;26.90;85.90;;;;;;4972428;28;20202;-76
2022/04/13 07:21:06;;;;;;;7.60;3.07;;;27.60;84.50;;;;;;4971736;28;20166;-76
2022/04/13 07:23:31;;;;;;;6.50;3.00;;;28.10;82.50;;;;;;4973209;28;20215;-76
2022/04/13 07:25:57;;;;;;;8.53;3.60;;;28.70;80.70;;;;;;4971715;28;20914;-76
2022/04/13 07:28:23;;;;;;;8.00;3.20;;;29.20;78.50;;;;;;4972559;28;20633;-76
2022/04/13 07:30:49;;;;;;;4.67;2.53;;;29.80;76.60;;;;;;4972662;28;20191;-76
2022/04/13 07:33:15;;;;;;;5.47;2.97;;;30.20;75.20;;;;;;4971604;28;20307;-76
2022/04/13 07:35:41;;;;;;;5.37;2.77;;;30.80;73.40;;;;;;4972894;28;20600;-76
2022/04/13 07:38:06;;;;;;;7.03;2.90;;;31.20;71.60;;;;;;4972136;28;20179;-76
2022/04/13 07:40:32;;;;;;;6.17;3.20;;;31.60;69.80;;;;;;4969669;28;20770;-77
2022/04/13 07:42:58;;;;;;;6.90;2.70;;;31.90;67.60;;;;;;4972319;28;20655;-77
2022/04/13 07:45:23;;;;;;;4.43;2.30;;;32.20;65.60;;;;;;4972664;28;20173;-77
2022/04/13 07:47:49;;;;;;;4.30;2.37;;;32.50;64.30;;;;;;4972427;28;20186;-77
2022/04/13 07:50:18;;;;;;;3.50;2.27;;;32.70;62.30;;;;;;4972415;28;20599;-77
2022/04/13 07:52:45;;;;;;;5.33;2.57;;;32.80;60.20;;;;;;4971808;28;20227;-77
2022/04/13 07:55:11;;;;;;;6.37;3.13;;;33.00;60.30;;;;;;4972665;28;20599;-77
2022/04/13 07:57:40;;;;;;;5.80;2.63;;;33.30;59.60;;;;;;4972441;28;20720;-77
2022/04/13 08:00:11;;;;;;;5.10;2.90;;;33.50;58.80;;;;;;4966546;28;20631;-77
2022/04/13 08:02:41;;;;;;;4.93;2.40;;;33.70;57.30;;;;;;4972306;28;20666;-77
2022/04/13 08:05:07;;;;;;;7.00;3.10;;;34.00;57.00;;;;;;4972083;28;21049;-77
2022/04/13 08:07:34;;;;;;;11.63;3.17;;;34.10;55.60;;;;;;4972133;28;20683;-77
2022/04/13 08:09:59;;;;;;;6.20;2.73;;;34.20;54.70;;;;;;4972054;28;20637;-77
2022/04/13 08:12:29;;;;;;;4.83;2.30;;;34.30;53.80;;;;;;4972489;28;20584;-77
2022/04/13 08:14:56;;;;;;;5.70;2.33;;;34.30;53.10;;;;;;4972359;28;20188;-77
2022/04/13 08:17:24;;;;;;;5.90;2.50;;;34.40;53.10;;;;;;4972029;28;21022;-77
2022/04/13 08:19:50;;;;;;;8.27;2.40;;;34.50;52.90;;;;;;4972231;28;20974;-77
2022/04/13 08:22:17;;;;;;;6.13;3.03;;;34.60;52.80;;;;;;4954719;28;20632;-77
2022/04/13 08:24:43;;;;;;;4.53;2.47;;;34.70;52.80;;;;;;4971483;28;20661;-77
2022/04/13 08:27:10;;;;;;;5.97;2.63;;;34.90;52.10;;;;;;4971986;28;20575;-77
2022/04/13 08:29:36;;;;;;;6.03;2.63;;;35.10;51.50;;;;;;4971843;28;20662;-77
2022/04/13 08:32:02;;;;;;;5.70;2.30;;;35.10;50.40;;;;;;4972682;28;20961;-74
2022/04/13 08:34:28;;;;;;;7.07;2.80;;;35.20;50.30;;;;;;4972287;28;20593;-74
2022/04/13 08:36:54;;;;;;;8.70;2.83;;;35.30;50.20;;;;;;4971980;28;20583;-74
2022/04/13 08:39:20;;;;;;;6.50;2.60;;;35.40;50.30;;;;;;4971856;28;20198;-75
2022/04/13 08:41:50;;;;;;;4.83;2.80;;;35.60;49.60;;;;;;4972171;28;20634;-74
2022/04/13 08:44:51;;;;;;;5.17;2.50;;;35.80;48.70;;;;;;4971914;28;20168;-74
2022/04/13 08:47:26;;;;;;;7.47;3.53;;;36.00;48.70;;;;;;4950529;28;20714;-74
2022/04/13 08:49:53;;;;;;;6.00;3.50;;;36.20;48.30;;;;;;4971761;28;20594;-74
2022/04/13 08:52:28;;;;;;;4.53;3.20;;;36.40;47.90;;;;;;4974908;28;20637;-75
2022/04/13 08:55:11;;;;;;;4.50;2.20;;;36.50;47.00;;;;;;4975136;28;20657;-75
2022/04/13 08:57:46;;;;;;;4.57;2.37;;;36.70;47.20;;;;;;4975434;28;20641;-74
2022/04/13 09:00:16;;;;;;;5.90;2.47;;;37.00;46.80;;;;;;4975560;28;20595;-75
2022/04/13 09:02:47;;;;;;;4.40;2.90;;;37.20;46.70;;;;;;4975658;28;20614;-74
2022/04/13 09:05:25;;;;;;;8.17;2.70;;;37.40;46.70;;;;;;4975497;28;20611;-74
2022/04/13 09:08:12;;;;;;;4.87;2.60;;;37.60;45.90;;;;;;4975195;28;20562;-74
2022/04/13 09:10:39;;;;;;;6.10;2.70;;;37.80;45.50;;;;;;4975534;28;20602;-74
2022/04/13 09:13:09;;;;;;;5.33;2.77;;;38.00;45.50;;;;;;4975367;28;20634;-74
2022/04/13 09:15:39;;;;;;;4.00;2.13;;;38.10;45.20;;;;;;4975478;28;20965;-74
2022/04/13 09:18:07;;;;;;;4.53;2.17;;;38.30;44.80;;;;;;4957772;28;20578;-75
2022/04/13 09:20:32;;;;;;;4.90;3.10;;;38.50;44.80;;;;;;4974924;28;20595;-75
2022/04/13 09:22:59;;;;;;;8.27;2.60;;;38.70;44.10;;;;;;4975358;28;20611;-74
2022/04/13 09:25:27;;;;;;;4.60;2.73;;;38.80;43.90;;;;;;4975312;28;20179;-75
2022/04/13 09:27:53;;;;;;;5.07;2.90;;;38.90;43.50;;;;;;4974936;28;20609;-75
2022/04/13 09:30:18;;;;;;;5.50;2.50;;;39.00;43.30;;;;;;4974888;28;21002;-75
2022/04/13 09:32:45;;;;;;;4.03;2.20;;;39.10;42.60;;;;;;4974098;28;20583;-75
2022/04/13 09:35:11;;;;;;;4.60;2.87;;;39.00;41.80;;;;;;4973731;28;20449;-74
2022/04/13 09:37:37;;;;;;;3.40;1.93;;;38.70;40.80;;;;;;4974907;28;20673;-74
2022/04/13 09:40:03;;;;;;;5.73;2.37;;;38.50;41.10;;;;;;4986579;28;20211;-74
2022/04/13 09:42:29;;;;;;;5.60;2.27;;;38.30;41.20;;;;;;4975073;28;20614;-74
2022/04/13 09:44:56;;;;;;;5.80;2.70;;;38.20;41.10;;;;;;4974844;28;21187;-74
2022/04/13 09:47:23;;;;;;;2.47;1.47;;;38.10;40.80;;;;;;4974288;28;20176;-74
2022/04/13 09:49:53;;;;;;;4.37;2.03;;;37.70;40.20;;;;;;4974347;28;20614;-74
2022/04/13 09:52:31;;;;;;;2.30;1.40;;;37.30;39.90;;;;;;4974795;28;20567;-74
2022/04/13 09:54:58;;;;;;;5.10;1.80;;;36.80;39.90;;;;;;4974496;28;21133;-73
2022/04/13 09:57:25;;;;;;;3.93;1.63;;;36.30;39.90;;;;;;4974338;28;20662;-75
2022/04/13 09:59:55;;;;;;;7.17;2.33;;;35.70;40.10;;;;;;4956086;28;20672;-74
2022/04/13 10:02:38;;;;;;;4.13;1.83;;;35.10;40.00;;;;;;4973304;28;20946;-74
2022/04/13 10:05:06;;;;;;;5.73;2.30;;;34.50;40.60;;;;;;4972905;28;20619;-74
2022/04/13 10:07:32;;;;;;;3.10;1.80;;;34.00;41.00;;;;;;4973447;28;20579;-74
2022/04/13 10:09:57;;;;;;;5.50;1.90;;;33.40;41.30;;;;;;4971839;28;21122;-74
2022/04/13 10:12:23;;;;;;;6.27;2.23;;;33.00;41.80;;;;;;4973372;28;20662;-74
2022/04/13 10:14:50;;;;;;;7.07;2.03;;;32.60;41.90;;;;;;4973519;28;20532;-73
2022/04/13 10:17:16;;;;;;;4.70;2.73;;;32.20;42.10;;;;;;4973813;28;20586;-74
2022/04/13 10:19:50;;;;;;;3.17;2.53;;;31.70;42.40;;;;;;4968775;28;20710;-74
2022/04/13 10:22:16;;;;;;;6.40;3.73;;;31.50;42.90;;;;;;4973522;28;20678;-74
2022/04/13 10:24:43;;;;;;;7.07;3.10;;;31.30;43.40;;;;;;4974119;28;20658;-74
2022/04/13 10:27:17;;;;;;;4.57;2.20;;;31.30;43.90;;;;;;4973370;28;20901;-73
2022/04/13 10:29:45;;;;;;;4.93;2.50;;;31.50;44.50;;;;;;4973300;28;20664;-73
2022/04/13 10:32:17;;;;;;;5.00;2.67;;;31.90;44.90;;;;;;4973958;28;20594;-73
2022/04/13 10:34:48;;;;;;;4.50;2.40;;;32.30;44.90;;;;;;4974168;28;20877;-74
2022/04/13 10:37:19;;;;;;;6.60;2.40;;;32.60;45.00;;;;;;4981356;28;20603;-73
2022/04/13 10:39:46;;;;;;;4.10;2.07;;;32.70;44.40;;;;;;4973841;28;20693;-73
2022/04/13 10:42:17;;;;;;;7.90;2.27;;;32.80;44.30;;;;;;4973350;28;20738;-73
2022/04/13 10:44:58;;;;;;;5.93;2.20;;;32.90;44.40;;;;;;4978879;28;20920;-74
2022/04/13 10:47:52;;;;;;;4.00;1.90;;;33.10;44.50;;;;;;4973144;28;21203;-74
2022/04/13 10:50:30;;;;;;;4.43;1.83;;;33.20;44.50;;;;;;4968144;28;20729;-73
2022/04/13 10:53:06;;;;;;;4.00;1.50;;;33.30;44.30;;;;;;4973395;28;20589;-74
2022/04/13 10:55:34;;;;;;;2.07;1.50;;;33.40;44.60;;;;;;4972381;28;20621;-74
2022/04/13 10:58:21;;;;;;;3.50;1.30;;;33.70;44.20;;;;;;4972783;28;20605;-74
2022/04/13 11:00:49;;;;;;;6.33;1.60;;;33.80;43.70;;;;;;4970969;28;20915;-73
2022/04/13 11:03:17;;;;;;;4.07;1.30;;;34.00;43.60;;;;;;4972123;28;21216;-74
2022/04/13 11:05:43;;;;;;;4.53;2.30;;;34.10;43.20;;;;;;4973416;28;20578;-74
2022/04/13 11:08:26;;;;;;;3.67;2.10;;;34.20;43.00;;;;;;4972754;28;21177;-74
2022/04/13 11:10:53;;;;;;;3.53;1.77;;;34.20;43.20;;;;;;4971527;28;20261;-74
2022/04/13 11:13:19;;;;;;;6.13;1.90;;;34.20;42.90;;;;;;4971392;28;21252;-75
2022/04/13 11:15:50;;;;;;;4.07;1.70;;;34.10;42.70;;;;;;4956544;28;20617;-75
2022/04/13 11:18:18;;;;;;;5.07;1.57;;;33.80;42.30;;;;;;4972198;28;20931;-75
2022/04/13 11:20:59;;;;;;;3.37;1.50;;;33.40;42.10;;;;;;4973620;28;20610;-75
2022/04/13 11:23:49;;;;;;;3.70;1.77;;;33.00;42.40;;;;;;4973379;28;20625;-75
2022/04/13 11:26:35;;;;;;;6.03;1.87;;;32.40;42.60;;;;;;4973017;28;20566;-75
2022/04/13 11:29:09;;;;;;;4.40;1.97;;;31.90;42.50;;;;;;4971146;28;20622;-74
2022/04/13 11:32:00;;;;;;;4.57;1.83;;;31.40;42.60;;;;;;4972467;28;20606;-74
2022/04/13 11:34:57;;;;;;;4.83;1.80;;;30.80;43.30;;;;;;4973169;28;20560;-74
2022/04/13 11:37:41;;;;;;;4.17;1.30;;;30.30;43.20;;;;;;4972565;28;20663;-74
2022/04/13 11:40:10;;;;;;;4.03;1.40;;;29.80;43.50;;;;;;4971497;28;20611;-74
2022/04/13 11:42:36;;;;;;;2.57;1.20;;;29.40;44.10;;;;;;4955271;28;21248;-74
2022/04/13 11:45:05;;;;;;;6.70;2.03;;;29.10;44.20;;;;;;4972732;28;20563;-74
2022/04/13 11:47:40;;;;;;;5.73;2.03;;;28.80;44.70;;;;;;4972298;28;20583;-74
2022/04/13 11:50:18;;;;;;;4.07;1.70;;;28.60;45.40;;;;;;4971293;28;20653;-73
2022/04/13 11:52:48;;;;;;;4.30;1.87;;;28.40;45.60;;;;;;4971252;28;20977;-74
2022/04/13 11:55:18;;;;;;;4.20;2.00;;;28.30;45.80;;;;;;4971214;28;20666;-74
2022/04/13 11:58:04;;;;;;;3.97;1.73;;;28.20;46.50;;;;;;4972171;28;20596;-75
2022/04/13 12:00:52;;;;;;;3.97;1.60;;;28.30;47.20;;;;;;4971006;28;20627;-74
2022/04/13 12:03:26;;;;;;;2.90;1.43;;;28.40;47.60;;;;;;4972097;28;20983;-74
2022/04/13 12:05:59;;;;;;;3.97;1.60;;;28.50;47.50;;;;;;4971828;28;21019;-74
2022/04/13 12:08:31;;;;;;;6.30;1.50;;;28.60;47.50;;;;;;4954704;28;20574;-74
2022/04/13 12:11:03;;;;;;;5.07;2.20;;;28.50;47.30;;;;;;4972123;28;20555;-73
2022/04/13 12:13:33;;;;;;;4.87;2.23;;;28.50;47.50;;;;;;4972368;28;20567;-74
2022/04/13 12:16:01;;;;;;;5.10;2.40;;;28.40;47.50;;;;;;4972557;28;20571;-74
2022/04/13 12:18:27;;;;;;;4.53;2.00;;;28.40;47.60;;;;;;4954894;28;20563;-74
2022/04/13 12:21:11;;;;;;;3.93;1.60;;;28.30;47.60;;;;;;4972153;28;20618;-74
2022/04/13 12:23:38;;;;;;;7.63;2.23;;;28.20;47.90;;;;;;4972035;28;21037;-74
2022/04/13 12:26:05;;;;;;;4.53;2.10;;;28.10;48.00;;;;;;4989223;28;20583;-75
2022/04/13 12:28:31;;;;;;;5.77;1.87;;;28.00;48.10;;;;;;4957975;28;20593;-75
2022/04/13 12:31:06;;;;;;;6.73;2.50;;;28.00;48.40;;;;;;4990314;28;20602;-75
2022/04/13 12:33:33;;;;;;;4.03;2.37;;;28.00;48.80;;;;;;4958175;28;20594;-75
2022/04/13 12:36:04;;;;;;;5.10;1.73;;;28.00;49.00;;;;;;4975030;28;20567;-75
2022/04/13 12:38:41;;;;;;;4.20;2.20;;;28.10;49.30;;;;;;4975438;28;20599;-75
2022/04/13 12:41:18;;;;;;;6.47;2.50;;;28.20;49.40;;;;;;4975619;28;20609;-75
2022/04/13 12:43:56;;;;;;;3.53;2.07;;;28.20;49.60;;;;;;4975943;28;20599;-75
2022/04/13 12:46:27;;;;;;;7.00;3.50;;;28.30;49.70;;;;;;4977376;28;20581;-74
2022/04/13 12:48:58;;;;;;;7.37;2.70;;;28.30;49.40;;;;;;4975312;28;20595;-75
2022/04/13 12:51:35;;;;;;;6.50;2.37;;;28.30;49.10;;;;;;4975836;28;20563;-74
2022/04/13 12:54:36;;;;;;;6.67;4.07;;;28.20;49.00;;;;;;4975152;28;20567;-74
2022/04/13 12:57:03;;;;;;;5.60;2.70;;;28.00;48.70;;;;;;4975423;28;20566;-74
2022/04/13 12:59:34;;;;;;;5.10;2.60;;;27.70;48.30;;;;;;4975143;28;20599;-75
2022/04/13 13:02:00;;;;;;;7.07;3.60;;;27.40;48.30;;;;;;4958065;28;20685;-74
2022/04/13 13:04:26;;;;;;;5.00;2.60;;;27.20;48.60;;;;;;4975585;28;20958;-74
2022/04/13 13:06:59;;;;;;;6.03;3.03;;;26.90;48.70;;;;;;4975304;28;20570;-74
2022/04/13 13:09:30;;;;;;;7.23;4.70;;;26.70;49.00;;;;;;4974481;28;20685;-75